Time;durP1;ratioP1;P1;durP2;ratioP2;P2;SDS_P1;SDS_P2;PMS_P1;PMS_P2;Temp;Humidity;BMP_temperature;BMP_pressure;BME280_temperature;BME280_humidity;BME280_pressure;Samples;Min_cycle;Max_cycle;Signal;HPM_P1;HPM_P2
2021/03/20 00:01:50;;;;;;;;;67.00;52.00;;;;;7.37;45.50;99041.09;6184515;28;126246;-57
2021/03/20 00:04:52;;;;;;;;;70.00;53.00;;;;;7.41;45.50;99041.53;6183427;28;126511;-57
2021/03/20 00:07:54;;;;;;;;;68.00;51.00;;;;;7.48;45.28;99052.31;6182934;28;127589;-57
2021/03/20 00:10:56;;;;;;;;;67.60;53.00;;;;;7.52;45.37;99048.19;6182834;28;126127;-57
2021/03/20 00:13:59;;;;;;;;;63.00;49.75;;;;;7.53;45.42;99053.34;6183815;28;126387;-57
2021/03/20 00:17:00;;;;;;;;;61.00;47.00;;;;;7.59;45.45;99055.22;6183899;28;125160;-57
2021/03/20 00:20:04;;;;;;;;;60.00;47.50;;;;;7.62;45.62;99059.38;6184177;28;125508;-57
2021/03/20 00:23:06;;;;;;;;;41.50;35.50;;;;;7.66;45.45;99060.63;6183378;28;126186;-57
2021/03/20 00:26:08;;;;;;;;;27.00;27.00;;;;;7.74;45.30;99065.84;6175554;28;126351;-57
2021/03/20 00:29:09;;;;;;;;;28.00;26.00;;;;;7.85;44.85;99057.22;6167034;28;127442;-57
2021/03/20 00:32:11;;;;;;;;;21.00;20.00;;;;;7.82;44.49;99049.56;6183697;28;125571;-57
2021/03/20 00:35:15;;;;;;;;;21.25;19.00;;;;;7.87;44.06;99065.88;6183452;28;124882;-57
2021/03/20 00:38:18;;;;;;;;;21.40;20.40;;;;;7.78;43.97;99046.44;6178992;28;127700;-57
2021/03/20 00:41:19;;;;;;;;;20.80;20.00;;;;;7.92;44.03;99065.28;6190455;28;125327;-57
2021/03/20 00:44:21;;;;;;;;;24.00;22.00;;;;;7.93;44.11;99062.41;6207883;28;126507;-57
2021/03/20 00:47:22;;;;;;;;;20.80;19.80;;;;;7.89;43.57;99069.22;6190935;28;125492;-57
2021/03/20 00:50:25;;;;;;;;;18.00;17.00;;;;;7.87;43.47;99060.50;6208527;28;126425;-57
2021/03/20 00:53:26;;;;;;;;;19.00;17.50;;;;;7.58;43.06;99018.69;6190091;28;126305;-57
2021/03/20 00:56:28;;;;;;;;;17.20;16.20;;;;;7.83;42.97;99064.63;6208021;28;125628;-57
2021/03/20 00:59:29;;;;;;;;;20.67;19.00;;;;;7.83;42.72;99052.03;6207623;28;126175;-57
2021/03/20 01:02:31;;;;;;;;;19.00;18.20;;;;;7.86;42.94;99064.25;6207958;28;125363;-57
2021/03/20 01:05:33;;;;;;;;;20.60;18.40;;;;;7.90;42.34;99062.81;6198656;28;126360;-57
2021/03/20 01:08:35;;;;;;;;;18.00;16.00;;;;;7.92;42.16;99067.97;6183967;28;126452;-57
2021/03/20 01:11:36;;;;;;;;;20.00;19.00;;;;;7.90;41.88;99064.66;6183519;28;127712;-57
2021/03/20 01:14:38;;;;;;;;;17.25;16.25;;;;;7.88;41.71;99061.34;6184212;28;127826;-57
2021/03/20 01:17:39;;;;;;;;;16.60;16.00;;;;;7.88;41.59;99066.72;6183112;28;125195;-57
2021/03/20 01:20:42;;;;;;;;;18.50;17.25;;;;;7.87;41.65;99078.50;6182269;28;124812;-57
2021/03/20 01:23:43;;;;;;;;;18.25;17.00;;;;;7.88;41.83;99082.81;6182671;28;126421;-57
2021/03/20 01:26:46;;;;;;;;;16.00;15.00;;;;;7.89;41.75;99073.75;6183201;28;125203;-57
2021/03/20 01:29:47;;;;;;;;;17.00;16.50;;;;;7.84;41.79;99066.28;6182860;28;126796;-57
2021/03/20 01:32:49;;;;;;;;;17.25;16.00;;;;;7.87;41.33;99076.63;6182695;28;123897;-57
2021/03/20 01:35:51;;;;;;;;;15.00;15.00;;;;;7.84;41.24;99068.97;6189090;28;127616;-57
2021/03/20 01:38:52;;;;;;;;;14.40;13.80;;;;;7.61;41.26;99047.81;6207211;28;126762;-57
2021/03/20 01:41:53;;;;;;;;;16.00;14.00;;;;;7.77;41.36;99074.31;6208645;28;126739;-57
2021/03/20 01:45:14;;;;;;;;;14.80;14.00;;;;;7.75;40.93;99076.38;6190411;28;125774;-57
2021/03/20 01:48:34;;;;;;;;;13.00;12.00;;;;;7.49;40.54;99032.47;6182492;28;124848;-57
2021/03/20 01:51:35;;;;;;;;;14.00;13.00;;;;;7.74;40.40;99081.94;6182312;28;125227;-57
2021/03/20 01:54:48;;;;;;;;;13.00;12.60;;;;;7.66;40.79;99076.75;6183522;28;126962;-57
2021/03/20 01:57:56;;;;;;;;;15.00;14.00;;;;;7.59;40.59;99067.81;6182733;28;126040;-57
2021/03/20 02:01:06;;;;;;;;;14.00;13.00;;;;;7.60;40.64;99080.22;6183144;28;125997;-57
2021/03/20 02:04:08;;;;;;;;;16.00;15.00;;;;;7.41;40.41;99044.19;6182883;28;126308;-57
2021/03/20 02:07:09;;;;;;;;;14.00;13.00;;;;;7.60;40.30;99080.22;6182345;28;124994;-57
2021/03/20 02:10:12;;;;;;;;;12.60;12.40;;;;;7.62;40.31;99076.31;6165354;28;125977;-57
2021/03/20 02:13:25;;;;;;;;;13.00;12.00;;;;;7.60;40.39;99083.72;6182794;28;125398;-57
2021/03/20 02:16:40;;;;;;;;;14.40;13.00;;;;;7.60;40.27;99090.94;6182786;28;126682;-57
2021/03/20 02:20:24;;;;;;;;;13.60;13.00;;;;;7.54;40.43;99099.78;6182144;28;125921;-57
2021/03/20 02:23:46;;;;;;;;;12.00;12.00;;;;;7.51;40.22;99101.00;6172940;28;124822;-57
2021/03/20 02:27:15;;;;;;;;;14.00;13.00;;;;;7.55;40.20;99106.81;6182244;28;125840;-57
2021/03/20 02:30:44;;;;;;;;;13.00;13.00;;;;;7.50;40.19;99107.41;6182043;28;125194;-57
2021/03/20 02:33:57;;;;;;;;;15.00;13.00;;;;;7.45;40.24;99109.00;6184161;28;123699;-57
2021/03/20 02:37:24;;;;;;;;;14.00;13.67;;;;;7.47;40.11;99099.75;6186723;28;125950;-57
2021/03/20 02:40:49;;;;;;;;;12.40;12.00;;;;;7.45;40.18;99104.47;6180921;28;125875;-57
2021/03/20 02:44:00;;;;;;;;;16.00;15.00;;;;;7.45;39.82;99109.84;6185026;28;124711;-57
2021/03/20 02:47:05;;;;;;;;;16.00;15.00;;;;;7.47;39.93;99113.16;6186779;28;124831;-57
2021/03/20 02:50:15;;;;;;;;;14.40;13.40;;;;;7.30;40.01;99084.97;6186690;28;124803;-57
2021/03/20 02:53:26;;;;;;;;;14.00;12.75;;;;;7.19;40.05;99072.94;6183280;28;125912;-57
2021/03/20 02:56:34;;;;;;;;;11.00;11.00;;;;;7.21;40.32;99086.16;6186833;28;124415;-57
2021/03/20 02:59:40;;;;;;;;;13.67;12.67;;;;;7.38;40.28;99114.31;6186395;28;126008;-57
2021/03/20 03:02:43;;;;;;;;;14.00;13.00;;;;;7.33;40.28;99124.84;6186395;28;125938;-57
2021/03/20 03:05:51;;;;;;;;;15.00;14.00;;;;;7.36;40.20;99124.44;6185323;28;124570;-57
2021/03/20 03:09:26;;;;;;;;;15.50;15.00;;;;;7.37;40.47;99134.97;6186934;28;125982;-57
2021/03/20 03:12:46;;;;;;;;;14.80;12.80;;;;;7.36;40.07;99137.84;6157510;28;126379;-57
2021/03/20 03:15:54;;;;;;;;;15.80;14.00;;;;;7.24;39.97;99134.00;6162118;28;127053;-57
2021/03/20 03:19:01;;;;;;;;;15.60;13.00;;;;;6.88;39.92;99080.53;6161464;28;124054;-57
2021/03/20 03:22:07;;;;;;;;;13.00;12.00;;;;;7.20;40.07;99146.16;6161968;28;126323;-57
2021/03/20 03:25:13;;;;;;;;;12.00;12.00;;;;;7.16;40.12;99151.09;6160907;28;125936;-57
2021/03/20 03:28:20;;;;;;;;;14.00;13.50;;;;;7.12;39.72;99159.72;6181175;28;124346;-57
2021/03/20 03:31:54;;;;;;;;;14.50;12.00;;;;;7.08;39.63;99166.47;6185295;28;125819;-57
2021/03/20 03:35:19;;;;;;;;;14.00;12.00;;;;;7.06;39.76;99165.84;6172745;28;124162;-57
2021/03/20 03:38:23;;;;;;;;;14.60;13.60;;;;;6.95;39.84;99165.31;6185685;28;124700;-57
2021/03/20 03:41:33;;;;;;;;;15.00;13.00;;;;;6.95;39.60;99173.38;6186072;28;126935;-57
2021/03/20 03:44:35;;;;;;;;;13.60;13.00;;;;;6.61;39.58;99135.72;6184361;28;124720;-57
2021/03/20 03:47:37;;;;;;;;;10.00;10.00;;;;;6.63;39.84;99136.34;6185564;28;126368;-57
2021/03/20 03:50:41;;;;;;;;;13.60;13.00;;;;;6.81;39.92;99174.25;6185474;28;125979;-57
2021/03/20 03:53:43;;;;;;;;;11.00;10.00;;;;;6.68;40.03;99163.41;6184995;28;126226;-57
2021/03/20 03:57:33;;;;;;;;;13.60;11.00;;;;;6.77;39.63;99193.59;6185842;28;126880;-57
2021/03/20 04:00:48;;;;;;;;;11.60;11.00;;;;;6.77;39.57;99196.28;6184523;28;126036;-57
2021/03/20 04:03:58;;;;;;;;;11.40;11.40;;;;;6.71;39.80;99202.38;6184788;28;126118;-57
2021/03/20 04:07:11;;;;;;;;;12.00;10.40;;;;;6.66;40.23;99197.59;6167925;28;127151;-57
2021/03/20 04:10:43;;;;;;;;;13.00;10.00;;;;;6.69;40.31;99207.94;6184911;28;125390;-57
2021/03/20 04:13:56;;;;;;;;;10.00;9.00;;;;;6.46;40.83;99175.94;6185315;28;125923;-57
2021/03/20 04:17:05;;;;;;;;;12.00;11.00;;;;;6.63;41.39;99219.41;6184853;28;124984;-57
2021/03/20 04:20:25;;;;;;;;;9.00;9.00;;;;;6.56;42.30;99218.50;6207997;28;125917;-57
2021/03/20 04:23:45;;;;;;;;;7.50;7.00;;;;;6.56;42.23;99223.00;6210214;28;126871;-57
2021/03/20 04:26:50;;;;;;;;;11.00;10.50;;;;;6.53;42.45;99227.75;6209795;28;126078;-57
2021/03/20 04:30:19;;;;;;;;;8.80;8.80;;;;;6.52;42.81;99236.78;6186002;28;124632;-57
2021/03/20 04:33:25;;;;;;;;;9.00;9.00;;;;;6.46;42.66;99244.72;6183780;28;126149;-57
2021/03/20 04:36:38;;;;;;;;;8.00;8.00;;;;;6.25;42.60;99218.75;6182442;28;124798;-57
2021/03/20 04:39:46;;;;;;;;;10.00;10.00;;;;;6.30;43.02;99244.94;6182539;28;125601;-57
2021/03/20 04:42:48;;;;;;;;;9.00;8.60;;;;;6.30;43.44;99248.47;6184139;28;126506;-57
2021/03/20 04:45:57;;;;;;;;;9.60;9.00;;;;;6.27;43.10;99256.00;6182321;28;125166;-57
2021/03/20 04:49:14;;;;;;;;;9.00;9.00;;;;;6.25;43.27;99258.06;6182980;28;126095;-57
2021/03/20 04:52:27;;;;;;;;;8.00;8.00;;;;;5.93;43.19;99240.50;6166644;28;124767;-57
2021/03/20 04:55:30;;;;;;;;;9.00;8.50;;;;;5.48;43.17;99153.16;6183723;28;125915;-57
2021/03/20 04:58:49;;;;;;;;;7.00;7.00;;;;;6.20;43.16;99274.69;6187830;28;126585;-57
2021/03/20 05:01:54;;;;;;;;;8.50;8.50;;;;;6.19;42.64;99281.03;6208697;28;125938;-57
2021/03/20 05:05:17;;;;;;;;;11.00;9.00;;;;;6.18;42.75;99287.41;6191188;28;124796;-57
2021/03/20 05:08:45;;;;;;;;;8.00;7.50;;;;;6.19;42.79;99288.25;6201808;28;123741;-57
2021/03/20 05:11:58;;;;;;;;;9.40;8.40;;;;;6.16;42.31;99293.97;6209579;28;126311;-57
2021/03/20 05:15:21;;;;;;;;;9.00;8.20;;;;;6.11;42.40;99297.19;6209329;28;124684;-57
2021/03/20 05:18:23;;;;;;;;;10.60;10.00;;;;;5.82;42.04;99273.84;6208956;28;124549;-57
2021/03/20 05:21:34;;;;;;;;;7.20;7.00;;;;;6.01;42.04;99310.03;6208580;28;125221;-57
2021/03/20 05:24:38;;;;;;;;;9.00;8.20;;;;;5.89;42.19;99306.94;6208696;28;124911;-57
2021/03/20 05:27:39;;;;;;;;;10.50;10.00;;;;;5.88;42.15;99315.13;6205512;28;124727;-57
2021/03/20 05:30:41;;;;;;;;;9.75;8.00;;;;;5.88;42.19;99321.31;6165905;28;125373;-57
2021/03/20 05:33:45;;;;;;;;;12.50;10.50;;;;;5.88;42.41;99315.97;6193707;28;128199;-57
2021/03/20 05:36:47;;;;;;;;;11.00;11.00;;;;;5.95;42.54;99330.31;6183035;28;124642;-57
2021/03/20 05:39:50;;;;;;;;;10.80;10.80;;;;;5.80;42.83;99299.13;6182621;28;126608;-57
2021/03/20 05:43:15;;;;;;;;;9.80;9.00;;;;;6.05;41.32;99336.25;6162155;28;127004;-57
2021/03/20 05:46:42;;;;;;;;;9.60;9.00;;;;;6.11;40.02;99344.56;6175338;28;126002;-57
2021/03/20 05:50:17;;;;;;;;;10.00;9.00;;;;;6.15;40.83;99341.31;6179212;28;126772;-57
2021/03/20 05:53:42;;;;;;;;;12.00;11.00;;;;;6.22;40.86;99346.75;6106086;28;124388;-57
2021/03/20 05:57:16;;;;;;;;;9.00;8.00;;;;;6.30;40.67;99344.84;6106677;28;126583;-57
2021/03/20 06:00:29;;;;;;;;;10.50;10.00;;;;;6.41;39.55;99346.22;6084199;28;125847;-57
2021/03/20 06:03:49;;;;;;;;;11.00;10.00;;;;;6.33;38.96;99333.78;6098938;28;124727;-57
2021/03/20 06:07:24;;;;;;;;;11.40;10.00;;;;;6.63;38.05;99355.22;6096673;28;125574;-57
2021/03/20 06:10:42;;;;;;;;;10.00;9.00;;;;;6.80;36.66;99352.13;6111574;28;124920;-57
2021/03/20 06:14:18;;;;;;;;;10.40;9.00;;;;;6.99;36.10;99360.66;6111992;28;124552;-57
2021/03/20 06:17:38;;;;;;;;;10.50;10.00;;;;;7.18;35.45;99352.84;6111418;28;124740;-57
2021/03/20 06:20:54;;;;;;;;;9.00;7.00;;;;;7.30;34.50;99369.25;6111017;28;124738;-57
2021/03/20 06:24:14;;;;;;;;;12.00;11.00;;;;;7.46;34.24;99370.88;6110525;28;124762;-57
2021/03/20 06:27:21;;;;;;;;;9.40;9.40;;;;;7.37;33.54;99332.63;6094437;28;126043;-57
2021/03/20 06:30:25;;;;;;;;;12.00;11.00;;;;;7.59;33.21;99371.84;6155978;28;124774;-57
2021/03/20 06:33:55;;;;;;;;;10.40;9.40;;;;;7.62;33.04;99384.91;6169133;28;124790;-56
2021/03/20 06:37:03;;;;;;;;;11.50;11.00;;;;;7.76;33.29;99380.50;6186020;28;123638;-56
2021/03/20 06:40:26;;;;;;;;;11.60;11.00;;;;;7.79;32.51;99386.28;6187544;28;123873;-56
2021/03/20 06:43:33;;;;;;;;;10.00;9.00;;;;;7.90;32.53;99382.28;6168664;28;123938;-56
2021/03/20 06:46:39;;;;;;;;;12.00;11.75;;;;;8.06;32.45;99386.56;6185886;28;125968;-56
2021/03/20 06:50:01;;;;;;;;;12.00;11.00;;;;;8.13;32.07;99390.09;6169070;28;127019;-56
2021/03/20 06:53:06;;;;;;;;;13.00;11.20;;;;;8.06;31.97;99386.56;6070608;28;126999;-56
2021/03/20 06:56:11;;;;;;;;;12.40;11.00;;;;;8.11;31.51;99408.28;6070584;28;125978;-57
2021/03/20 06:59:14;;;;;;;;;10.00;9.00;;;;;8.07;31.31;99405.13;6062211;28;125887;-56
2021/03/20 07:02:20;;;;;;;;;11.25;10.00;;;;;8.05;31.42;99406.38;6062912;28;124697;-56
2021/03/20 07:05:41;;;;;;;;;11.00;11.00;;;;;8.01;31.34;99414.00;6062945;28;123768;-56
2021/03/20 07:08:53;;;;;;;;;11.60;11.00;;;;;8.01;31.23;99405.94;6063271;28;125916;-56
2021/03/20 07:12:12;;;;;;;;;12.40;12.00;;;;;8.31;31.03;99411.97;6062464;28;126994;-56
2021/03/20 07:15:20;;;;;;;;;13.80;11.80;;;;;8.67;31.13;99415.38;6062162;28;126595;-56
2021/03/20 07:18:40;;;;;;;;;10.25;9.75;;;;;9.43;29.52;99416.16;6062234;28;126976;-56
2021/03/20 07:21:43;;;;;;;;;11.00;10.00;;;;;9.47;29.17;99422.81;6062570;28;125991;-56
2021/03/20 07:24:46;;;;;;;;;10.50;10.00;;;;;9.62;29.02;99421.84;6066965;28;124349;-56
2021/03/20 07:27:48;;;;;;;;;10.20;9.20;;;;;9.72;28.93;99422.28;6086478;28;124907;-56
2021/03/20 07:30:59;;;;;;;;;11.00;10.00;;;;;9.72;29.07;99427.66;6166865;28;124439;-56
2021/03/20 07:34:22;;;;;;;;;12.00;11.00;;;;;9.68;29.25;99431.78;6168218;28;125990;-57
2021/03/20 07:37:27;;;;;;;;;10.40;10.00;;;;;9.66;29.19;99437.38;6185296;28;126217;-56
2021/03/20 07:40:34;;;;;;;;;11.00;10.00;;;;;9.67;28.77;99438.22;6185162;28;124679;-57
2021/03/20 07:43:35;;;;;;;;;13.00;13.00;;;;;9.60;28.97;99435.50;6186026;28;127571;-57
2021/03/20 07:46:38;;;;;;;;;12.75;11.00;;;;;9.47;29.02;99428.22;6185821;28;127357;-57
2021/03/20 07:49:40;;;;;;;;;13.00;12.00;;;;;9.42;28.99;99430.69;6184477;28;126004;-57
2021/03/20 07:52:42;;;;;;;;;13.00;11.40;;;;;9.64;28.57;99408.97;6185995;28;127764;-57
2021/03/20 07:56:12;;;;;;;;;13.00;12.00;;;;;10.26;28.31;99455.34;6184561;28;126848;-56
2021/03/20 07:59:17;;;;;;;;;14.00;12.20;;;;;10.69;27.40;99442.31;6184473;28;124690;-57
2021/03/20 08:02:33;;;;;;;;;10.75;10.00;;;;;10.88;27.41;99443.31;6184437;28;124739;-57
2021/03/20 08:05:37;;;;;;;;;11.00;10.00;;;;;11.11;26.95;99440.97;6185178;28;126287;-57
2021/03/20 08:08:38;;;;;;;;;13.60;11.00;;;;;12.30;25.66;99451.22;6185080;28;126110;-57
2021/03/20 08:11:40;;;;;;;;;11.40;10.00;;;;;14.02;24.27;99454.63;6167113;28;125480;-57
2021/03/20 08:14:45;;;;;;;;;10.00;9.00;;;;;14.52;23.49;99457.03;6185392;28;127613;-57
2021/03/20 08:17:47;;;;;;;;;11.00;10.00;;;;;14.19;23.56;99460.22;6166702;28;127310;-57
2021/03/20 08:21:10;;;;;;;;;9.80;9.00;;;;;13.72;23.56;99457.34;6184656;28;126302;-57
2021/03/20 08:24:36;;;;;;;;;9.80;7.80;;;;;13.21;23.74;99467.72;6184915;28;124765;-57
2021/03/20 08:27:56;;;;;;;;;9.00;8.00;;;;;12.73;24.79;99462.94;6184808;28;127050;-57
2021/03/20 08:31:16;;;;;;;;;9.75;8.75;;;;;12.70;24.71;99460.69;6183947;28;124744;-57
2021/03/20 08:34:29;;;;;;;;;10.60;9.00;;;;;14.15;23.07;99494.28;6183783;28;124750;-57
2021/03/20 08:37:36;;;;;;;;;10.00;9.00;;;;;15.44;21.89;99453.47;6185108;28;126917;-57
2021/03/20 08:41:08;;;;;;;;;9.50;8.50;;;;;15.84;21.27;99458.94;6167203;28;127243;-57
2021/03/20 08:44:18;;;;;;;;;8.20;7.80;;;;;17.11;20.09;99456.53;6184383;28;125804;-57
2021/03/20 08:47:52;;;;;;;;;9.00;7.75;;;;;18.19;18.07;99455.75;6184456;28;124680;-57
2021/03/20 08:51:22;;;;;;;;;8.00;7.00;;;;;18.54;17.74;99460.78;6140733;28;126943;-57
2021/03/20 08:54:35;;;;;;;;;7.80;7.80;;;;;19.37;17.69;99467.38;6183995;28;126526;-57
2021/03/20 08:57:50;;;;;;;;;7.00;7.00;;;;;20.18;16.59;99437.63;6183929;28;125888;-57
2021/03/20 09:01:11;;;;;;;;;4.25;4.25;;;;;20.75;16.11;99469.50;6183918;28;125141;-57
2021/03/20 09:04:36;;;;;;;;;6.00;5.60;;;;;20.33;16.24;99438.78;6133339;28;124780;-57
2021/03/20 09:07:45;;;;;;;;;6.20;6.00;;;;;20.40;16.44;99474.94;6183128;28;125132;-57
2021/03/20 09:10:58;;;;;;;;;5.00;5.00;;;;;21.10;15.62;99463.19;6183566;28;126032;-57
2021/03/20 09:14:15;;;;;;;;;7.00;5.60;;;;;21.82;14.77;99478.38;6183197;28;125808;-57
2021/03/20 09:17:28;;;;;;;;;6.20;5.00;;;;;21.99;14.85;99478.88;6183684;28;124778;-57
2021/03/20 09:20:59;;;;;;;;;6.00;5.00;;;;;22.45;14.45;99474.75;6184129;28;128136;-57
2021/03/20 09:24:20;;;;;;;;;4.40;3.40;;;;;22.83;14.40;99473.13;6180652;28;127321;-57
2021/03/20 09:27:59;;;;;;;;;5.00;5.00;;;;;22.85;13.47;99476.41;6182906;28;127162;-57
2021/03/20 09:31:28;;;;;;;;;5.00;5.00;;;;;23.06;13.96;99479.81;6162885;28;126266;-57
2021/03/20 09:34:39;;;;;;;;;7.00;5.00;;;;;22.30;13.90;99493.25;6180027;28;124742;-57
2021/03/20 09:37:50;;;;;;;;;6.40;6.00;;;;;20.99;15.31;99492.50;6182259;28;124926;-57
2021/03/20 09:40:55;;;;;;;;;5.75;5.75;;;;;19.48;15.94;99467.47;6182388;28;126522;-57
2021/03/20 09:44:03;;;;;;;;;7.60;6.60;;;;;19.46;15.86;99495.91;6151968;28;126269;-57
2021/03/20 09:47:32;;;;;;;;;7.50;6.50;;;;;19.19;16.62;99488.88;6186139;28;124747;-57
2021/03/20 09:50:35;;;;;;;;;7.00;6.40;;;;;19.58;16.19;99486.69;6173459;28;125977;-57
2021/03/20 09:53:38;;;;;;;;;6.00;5.60;;;;;18.55;16.90;99491.63;6172207;28;124256;-57
2021/03/20 09:56:41;;;;;;;;;8.00;7.75;;;;;17.79;17.53;99489.97;6182165;28;125188;-57
2021/03/20 09:59:43;;;;;;;;;8.00;8.00;;;;;16.87;18.19;99483.16;6185521;28;124978;-57
2021/03/20 10:02:52;;;;;;;;;6.00;6.00;;;;;16.38;18.69;99494.78;6186156;28;127597;-57
2021/03/20 10:06:12;;;;;;;;;7.00;7.00;;;;;17.00;17.25;99500.25;6185821;28;127093;-57
2021/03/20 10:09:16;;;;;;;;;4.80;3.80;;;;;17.59;17.42;99502.22;6185952;28;126023;-57
2021/03/20 10:12:21;;;;;;;;;6.00;5.00;;;;;18.23;16.24;99497.00;6185757;28;126210;-57
2021/03/20 10:15:36;;;;;;;;;6.00;6.00;;;;;19.60;15.98;99498.97;6185745;28;126054;-57
2021/03/20 10:19:08;;;;;;;;;5.25;5.00;;;;;20.55;14.48;99502.34;6185457;28;124681;-57
2021/03/20 10:22:27;;;;;;;;;4.00;4.00;;;;;21.10;14.46;99491.41;6186606;28;125356;-57
2021/03/20 10:25:32;;;;;;;;;6.00;5.00;;;;;21.11;14.14;99500.47;6186845;28;128169;-57
2021/03/20 10:28:46;;;;;;;;;7.00;6.00;;;;;19.89;14.65;99504.88;6180962;28;125778;-57
2021/03/20 10:31:51;;;;;;;;;6.00;5.00;;;;;18.86;15.88;99500.94;6186007;28;125826;-57
2021/03/20 10:34:56;;;;;;;;;6.25;6.00;;;;;18.20;16.48;99519.34;6167914;28;125978;-57
2021/03/20 10:38:16;;;;;;;;;7.00;7.00;;;;;17.34;17.25;99515.50;6185420;28;124881;-57
2021/03/20 10:41:17;;;;;;;;;6.60;6.00;;;;;16.60;17.33;99509.38;6185105;28;125326;-57
2021/03/20 10:44:26;;;;;;;;;7.20;6.20;;;;;15.90;17.50;99509.66;6186185;28;128312;-57
2021/03/20 10:47:36;;;;;;;;;7.00;7.00;;;;;15.10;18.53;99482.31;6176060;28;124796;-57
2021/03/20 10:50:43;;;;;;;;;11.00;8.00;;;;;14.86;19.07;99518.66;6153986;28;124979;-57
2021/03/20 10:53:50;;;;;;;;;6.00;5.80;;;;;14.92;19.41;99506.06;6177254;28;125373;-57
2021/03/20 10:56:54;;;;;;;;;7.00;6.60;;;;;14.57;19.44;99503.28;6172578;28;127184;-57
2021/03/20 10:59:55;;;;;;;;;8.80;8.20;;;;;14.44;20.31;99514.34;6174370;28;126148;-57
2021/03/20 11:03:21;;;;;;;;;7.00;7.00;;;;;14.16;20.07;99507.63;6173371;28;126835;-57
2021/03/20 11:06:24;;;;;;;;;7.00;7.00;;;;;13.91;20.23;99511.50;6173117;28;127620;-57
2021/03/20 11:09:28;;;;;;;;;8.60;7.00;;;;;13.56;20.44;99514.00;6148135;28;125197;-57
2021/03/20 11:12:29;;;;;;;;;8.40;7.00;;;;;13.25;21.21;99512.25;6186346;28;126666;-57
2021/03/20 11:15:33;;;;;;;;;5.75;5.00;;;;;13.03;21.63;99528.88;6182147;28;127675;-57
2021/03/20 11:18:43;;;;;;;;;7.50;7.00;;;;;12.75;22.16;99524.97;6166252;28;126079;-57
2021/03/20 11:21:49;;;;;;;;;11.80;10.20;;;;;12.44;22.55;99523.09;6159480;28;124946;-57
2021/03/20 11:24:55;;;;;;;;;12.40;11.00;;;;;11.95;22.95;99497.59;6158957;28;125611;-56
2021/03/20 11:28:09;;;;;;;;;10.00;9.00;;;;;11.87;22.97;99521.34;6169760;28;128638;-57
2021/03/20 11:31:15;;;;;;;;;11.00;11.00;;;;;11.60;23.42;99507.06;6184550;28;125994;-56
2021/03/20 11:34:23;;;;;;;;;10.40;9.40;;;;;11.47;23.42;99516.06;6184445;28;124465;-56
2021/03/20 11:37:27;;;;;;;;;9.60;9.60;;;;;12.20;23.46;99499.53;6173938;28;126123;-57
2021/03/20 11:40:34;;;;;;;;;10.00;10.00;;;;;12.43;22.50;99500.63;6185004;28;125036;-57
2021/03/20 11:43:42;;;;;;;;;12.60;10.60;;;;;12.44;22.03;99499.59;6182597;28;126158;-57
2021/03/20 11:46:59;;;;;;;;;11.40;10.00;;;;;12.13;22.50;99470.66;6184297;28;125942;-57
2021/03/20 11:50:13;;;;;;;;;11.60;10.00;;;;;12.01;22.79;99456.22;6184570;28;126034;-57
2021/03/20 11:53:27;;;;;;;;;10.00;9.00;;;;;12.13;22.27;99496.88;6183837;28;126685;-57
2021/03/20 11:56:34;;;;;;;;;11.00;9.80;;;;;11.98;22.13;99486.34;6183759;28;124812;-57
2021/03/20 11:59:42;;;;;;;;;208.20;194.60;;;;;11.93;22.27;99485.34;6183063;28;126656;-57
2021/03/20 12:02:43;;;;;;;;;14.60;14.00;;;;;12.78;21.63;99476.63;6184015;28;126621;-57
2021/03/20 12:05:45;;;;;;;;;17.25;17.25;;;;;13.11;21.61;99465.53;6184131;28;128093;-57
2021/03/20 12:08:49;;;;;;;;;12.00;10.00;;;;;13.18;21.33;99471.72;6183300;28;124585;-57
2021/03/20 12:11:53;;;;;;;;;12.00;11.60;;;;;12.82;21.31;99444.53;6184634;28;124468;-56
2021/03/20 12:14:55;;;;;;;;;13.40;12.40;;;;;14.16;21.57;99466.94;6184025;28;125071;-56
2021/03/20 12:17:58;;;;;;;;;10.60;10.60;;;;;14.96;20.26;99461.91;6183090;28;128985;-56
2021/03/20 12:21:07;;;;;;;;;12.20;11.20;;;;;14.83;20.49;99474.88;6182571;28;123886;-57
2021/03/20 12:24:12;;;;;;;;;11.60;11.00;;;;;14.40;20.93;99458.91;6183001;28;124658;-56
2021/03/20 12:27:27;;;;;;;;;13.00;12.00;;;;;14.18;21.23;99466.69;6184349;28;127202;-56
2021/03/20 12:30:33;;;;;;;;;14.60;14.00;;;;;13.88;21.89;99467.53;6183716;28;124864;-58
2021/03/20 12:33:59;;;;;;;;;16.00;14.00;;;;;13.58;21.77;99460.44;6159734;28;126865;-58
2021/03/20 12:37:17;;;;;;;;;17.00;14.00;;;;;13.15;22.33;99457.78;6159253;28;126654;-56
2021/03/20 12:40:19;;;;;;;;;17.60;16.00;;;;;12.83;23.25;99468.69;6160746;28;127580;-55
2021/03/20 12:43:25;;;;;;;;;14.00;13.25;;;;;12.65;23.50;99468.66;6183351;28;126514;-56
2021/03/20 12:46:27;;;;;;;;;17.00;14.60;;;;;12.37;24.00;99452.81;6183688;28;125042;-57
2021/03/20 12:49:34;;;;;;;;;15.00;14.00;;;;;12.28;24.16;99464.97;6182968;28;124412;-56
2021/03/20 12:52:37;;;;;;;;;18.40;18.40;;;;;12.10;24.29;99467.59;6182998;28;124677;-55
2021/03/20 12:55:40;;;;;;;;;13.25;13.00;;;;;12.14;24.11;99466.94;6183016;28;126259;-58
2021/03/20 12:58:41;;;;;;;;;14.67;13.67;;;;;12.20;23.42;99486.03;6165618;28;126556;-58
2021/03/20 13:01:43;;;;;;;;;16.20;15.80;;;;;12.21;23.47;99447.13;6182709;28;126818;-58
2021/03/20 13:04:46;;;;;;;;;11.67;11.67;;;;;11.99;23.01;99390.72;6183284;28;126666;-57
2021/03/20 13:07:47;;;;;;;;;15.00;13.40;;;;;12.53;22.50;99460.41;6183002;28;126220;-57
2021/03/20 13:10:49;;;;;;;;;14.25;13.00;;;;;12.50;22.51;99446.50;6183923;28;127534;-57
2021/03/20 13:13:50;;;;;;;;;13.50;13.00;;;;;12.41;22.71;99448.63;6183142;28;126687;-57
2021/03/20 13:16:52;;;;;;;;;15.40;13.00;;;;;12.33;22.58;99440.78;6182798;28;125678;-57
2021/03/20 13:19:53;;;;;;;;;13.00;11.00;;;;;12.17;23.20;99445.94;6182985;28;127361;-57
2021/03/20 13:22:55;;;;;;;;;16.40;14.40;;;;;12.13;23.59;99457.16;6165679;28;125524;-58
2021/03/20 13:25:57;;;;;;;;;13.20;13.00;;;;;11.94;22.73;99446.47;6182591;28;125055;-58
2021/03/20 13:29:02;;;;;;;;;13.00;12.00;;;;;11.71;23.29;99452.38;6183859;28;127014;-56
2021/03/20 13:32:04;;;;;;;;;13.40;12.40;;;;;11.35;24.31;99414.31;6182872;28;126936;-57
2021/03/20 13:35:06;;;;;;;;;13.75;12.00;;;;;11.46;23.89;99457.69;6182725;28;125327;-58
2021/03/20 13:38:10;;;;;;;;;12.00;11.00;;;;;11.24;24.35;99440.09;6181957;28;126420;-58
2021/03/20 13:41:11;;;;;;;;;11.00;10.00;;;;;11.25;23.46;99464.19;6158344;28;126060;-56
2021/03/20 13:44:15;;;;;;;;;15.00;13.40;;;;;11.02;23.92;99438.72;6158347;28;126705;-56
2021/03/20 13:47:16;;;;;;;;;12.40;12.00;;;;;11.12;24.05;99461.53;6164934;28;125138;-55
2021/03/20 13:50:19;;;;;;;;;12.00;11.00;;;;;11.12;23.65;99447.19;6181568;28;125315;-56
2021/03/20 13:53:24;;;;;;;;;11.00;11.00;;;;;11.09;24.31;99459.22;6183180;28;127358;-56
2021/03/20 13:56:25;;;;;;;;;12.00;11.00;;;;;11.00;24.36;99411.09;6183312;28;127051;-56
2021/03/20 13:59:27;;;;;;;;;12.50;10.50;;;;;11.26;24.15;99443.41;6181888;28;125749;-56
2021/03/20 14:02:28;;;;;;;;;11.33;11.00;;;;;11.21;24.05;99444.06;6182329;28;125270;-56
2021/03/20 14:05:30;;;;;;;;;12.00;11.00;;;;;11.20;24.53;99439.69;6178735;28;126856;-56
2021/03/20 14:08:31;;;;;;;;;12.75;12.00;;;;;11.18;24.18;99440.97;6182908;28;126529;-56
2021/03/20 14:11:33;;;;;;;;;13.40;12.40;;;;;11.03;23.62;99451.16;6164386;28;126650;-56
2021/03/20 14:14:34;;;;;;;;;13.50;12.25;;;;;10.91;24.16;99442.03;6183283;28;127502;-56
2021/03/20 14:17:36;;;;;;;;;13.00;12.60;;;;;10.86;24.66;99442.69;6181596;28;127720;-56
2021/03/20 14:20:40;;;;;;;;;16.00;14.00;;;;;10.81;24.45;99432.53;6173919;28;124618;-56
2021/03/20 14:23:42;;;;;;;;;14.00;13.60;;;;;10.85;24.24;99441.84;6168340;28;125018;-56
2021/03/20 14:26:43;;;;;;;;;16.00;13.00;;;;;10.91;24.79;99442.03;6169649;28;126978;-56
2021/03/20 14:29:45;;;;;;;;;12.00;11.00;;;;;10.97;24.06;99435.81;6165031;28;126689;-56
2021/03/20 14:32:46;;;;;;;;;13.00;11.00;;;;;10.89;23.02;99415.31;6161836;28;126379;-57
2021/03/20 14:35:51;;;;;;;;;11.00;11.00;;;;;11.26;23.52;99421.81;6172242;28;124792;-57